Time;durP1;ratioP1;P1;durP2;ratioP2;P2;SDS_P1;SDS_P2;PMS_P1;PMS_P2;Temp;Humidity;BMP_temperature;BMP_pressure;BME280_temperature;BME280_humidity;BME280_pressure;Samples;Min_cycle;Max_cycle;Signal;HPM_P1;HPM_P2
2023/12/21 00:02:11;;;;;;;2.87;0.60;;;4.70;99.90;;;;;;5055824;28;20449;-81
2023/12/21 00:04:37;;;;;;;0.40;0.40;;;4.70;99.90;;;;;;5056160;28;20445;-81
2023/12/21 00:07:05;;;;;;;0.40;0.30;;;4.70;99.90;;;;;;5055854;28;20831;-81
2023/12/21 00:09:32;;;;;;;0.30;0.30;;;4.70;99.90;;;;;;5056243;28;20441;-81
2023/12/21 00:11:59;;;;;;;0.30;0.20;;;4.70;99.90;;;;;;5056073;28;20452;-81
2023/12/21 00:14:27;;;;;;;0.30;0.30;;;4.80;99.90;;;;;;5056017;28;20437;-81
2023/12/21 00:16:53;;;;;;;0.60;0.30;;;4.80;99.90;;;;;;5056134;28;20970;-82
2023/12/21 00:19:20;;;;;;;0.30;0.30;;;4.80;99.90;;;;;;5056485;28;20438;-82
2023/12/21 00:21:47;;;;;;;0.50;0.33;;;4.80;99.90;;;;;;5055657;28;20500;-81
2023/12/21 00:24:15;;;;;;;0.53;0.40;;;4.80;99.90;;;;;;5056405;28;20453;-82
2023/12/21 00:26:41;;;;;;;0.30;0.30;;;4.70;99.90;;;;;;5055637;28;20454;-81
2023/12/21 00:29:09;;;;;;;0.30;0.20;;;4.70;99.90;;;;;;5056467;28;20801;-81
2023/12/21 00:31:36;;;;;;;0.40;0.40;;;4.70;99.90;;;;;;5056041;28;20438;-81
2023/12/21 00:34:06;;;;;;;0.30;0.23;;;4.70;99.90;;;;;;5056080;28;20477;-81
2023/12/21 00:36:33;;;;;;;0.60;0.57;;;4.70;99.90;;;;;;5056129;28;20457;-81
2023/12/21 00:38:59;;;;;;;1.30;0.30;;;4.70;99.90;;;;;;5056230;28;20453;-81
2023/12/21 00:41:28;;;;;;;0.30;0.30;;;4.70;99.90;;;;;;5056211;28;20486;-81
2023/12/21 00:43:55;;;;;;;0.30;0.30;;;4.70;99.90;;;;;;5056171;28;20817;-81
2023/12/21 00:46:21;;;;;;;0.30;0.30;;;4.70;99.90;;;;;;5055938;28;20441;-80
2023/12/21 00:48:48;;;;;;;0.40;0.33;;;4.80;99.90;;;;;;5065947;28;20449;-81
2023/12/21 00:51:15;;;;;;;0.30;0.20;;;4.80;99.90;;;;;;5053356;28;20442;-81
2023/12/21 00:53:41;;;;;;;2.10;0.30;;;4.70;99.90;;;;;;5054028;28;20433;-81
2023/12/21 00:56:09;;;;;;;0.40;0.30;;;4.70;99.90;;;;;;5054270;28;20448;-82
2023/12/21 00:58:37;;;;;;;0.30;0.30;;;4.70;99.90;;;;;;5054468;28;20515;-81
2023/12/21 01:01:04;;;;;;;0.50;0.33;;;4.80;99.90;;;;;;5055388;28;20473;-82
2023/12/21 01:03:31;;;;;;;0.87;0.40;;;4.80;99.90;;;;;;5056051;28;20453;-80
2023/12/21 01:05:58;;;;;;;0.30;0.30;;;4.70;99.90;;;;;;5055133;28;20453;-81
2023/12/21 01:08:24;;;;;;;0.30;0.30;;;4.70;99.90;;;;;;5053622;28;20982;-81
2023/12/21 01:10:51;;;;;;;0.40;0.40;;;4.60;99.90;;;;;;5054171;28;20812;-81
2023/12/21 01:13:18;;;;;;;0.30;0.27;;;4.60;99.90;;;;;;5054094;28;20441;-82
2023/12/21 01:15:46;;;;;;;0.30;0.30;;;4.60;99.90;;;;;;5054329;28;20442;-82
2023/12/21 01:18:12;;;;;;;0.40;0.40;;;4.60;99.90;;;;;;5057902;28;20461;-82
2023/12/21 01:20:39;;;;;;;1.43;0.67;;;4.60;99.90;;;;;;5057342;28;20482;-82
2023/12/21 01:23:06;;;;;;;0.73;0.50;;;4.60;99.90;;;;;;5058123;28;20442;-81
2023/12/21 01:25:33;;;;;;;0.40;0.40;;;4.70;99.90;;;;;;5058229;28;20434;-81
2023/12/21 01:27:59;;;;;;;0.30;0.20;;;4.70;99.90;;;;;;5057805;28;20841;-83
2023/12/21 01:30:27;;;;;;;0.30;0.30;;;4.70;99.90;;;;;;5058322;28;20453;-82
2023/12/21 01:32:55;;;;;;;0.40;0.30;;;4.80;99.90;;;;;;5058755;28;20445;-82
2023/12/21 01:35:22;;;;;;;0.40;0.33;;;4.80;99.90;;;;;;5058308;28;20445;-81
2023/12/21 01:37:48;;;;;;;0.30;0.30;;;4.80;99.90;;;;;;5058487;28;20469;-82
2023/12/21 01:40:16;;;;;;;0.30;0.20;;;4.80;99.90;;;;;;5058259;28;20801;-82
2023/12/21 01:42:43;;;;;;;0.30;0.30;;;4.70;99.90;;;;;;5058508;28;20473;-83
2023/12/21 01:45:10;;;;;;;0.30;0.30;;;4.70;99.90;;;;;;5058327;28;20445;-83
2023/12/21 01:47:37;;;;;;;0.30;0.20;;;4.70;99.90;;;;;;5058502;28;20505;-81
2023/12/21 01:50:07;;;;;;;0.30;0.30;;;4.70;99.90;;;;;;5058267;28;20454;-82
2023/12/21 01:52:34;;;;;;;0.30;0.30;;;4.80;99.90;;;;;;5057737;28;20851;-82
2023/12/21 01:55:02;;;;;;;0.40;0.30;;;4.70;99.90;;;;;;5058395;28;20442;-82
2023/12/21 01:57:28;;;;;;;0.30;0.20;;;4.80;99.90;;;;;;5058007;28;21006;-82
2023/12/21 01:59:55;;;;;;;0.40;0.30;;;4.80;99.90;;;;;;5058337;28;20946;-82
2023/12/21 02:02:22;;;;;;;0.30;0.20;;;4.70;99.90;;;;;;5058613;28;20489;-82
2023/12/21 02:04:49;;;;;;;0.30;0.20;;;4.70;99.90;;;;;;5058404;28;20452;-83
2023/12/21 02:07:18;;;;;;;0.30;0.30;;;4.70;99.90;;;;;;5058068;28;20828;-82
2023/12/21 02:09:45;;;;;;;0.47;0.30;;;4.70;99.90;;;;;;5057812;28;20449;-81
2023/12/21 02:12:11;;;;;;;0.30;0.30;;;4.80;99.90;;;;;;5058227;28;20939;-82
2023/12/21 02:14:38;;;;;;;0.40;0.30;;;4.80;99.90;;;;;;5058110;28;20458;-81
2023/12/21 02:17:09;;;;;;;0.30;0.30;;;4.80;99.90;;;;;;5057763;28;20461;-83
2023/12/21 02:19:36;;;;;;;0.30;0.30;;;4.80;99.90;;;;;;5057500;28;20441;-82
2023/12/21 02:22:05;;;;;;;0.30;0.30;;;4.80;99.90;;;;;;5057929;28;20485;-81
2023/12/21 02:24:33;;;;;;;0.30;0.30;;;4.80;99.90;;;;;;5058412;28;20446;-81
2023/12/21 02:27:00;;;;;;;0.30;0.20;;;4.80;99.90;;;;;;5057701;28;20466;-81
2023/12/21 02:29:27;;;;;;;0.40;0.30;;;4.80;99.90;;;;;;5058175;28;20846;-82
2023/12/21 02:31:54;;;;;;;0.30;0.30;;;4.90;99.90;;;;;;5058320;28;20446;-83
2023/12/21 02:34:20;;;;;;;0.30;0.30;;;4.90;99.90;;;;;;5057576;28;20434;-82
2023/12/21 02:36:47;;;;;;;0.30;0.20;;;4.90;99.90;;;;;;5057870;28;20469;-83
2023/12/21 02:39:14;;;;;;;0.30;0.30;;;4.90;99.90;;;;;;5057896;28;20442;-82
2023/12/21 02:41:42;;;;;;;0.30;0.20;;;4.90;99.90;;;;;;5057712;28;20473;-82
2023/12/21 02:44:08;;;;;;;0.40;0.30;;;5.00;99.90;;;;;;5057804;28;20453;-83
2023/12/21 02:46:35;;;;;;;0.30;0.20;;;5.00;99.90;;;;;;5058336;28;20821;-82
2023/12/21 02:49:02;;;;;;;0.40;0.30;;;4.90;99.90;;;;;;5058115;28;20445;-81
2023/12/21 02:51:28;;;;;;;0.40;0.33;;;4.90;99.90;;;;;;5057600;28;20453;-81
2023/12/21 02:53:55;;;;;;;0.50;0.30;;;5.00;99.90;;;;;;5057695;28;20458;-81
2023/12/21 02:56:22;;;;;;;0.30;0.20;;;4.90;99.90;;;;;;5057831;28;20803;-82
2023/12/21 02:58:50;;;;;;;0.30;0.20;;;5.00;99.90;;;;;;5057845;28;20442;-81
2023/12/21 03:01:17;;;;;;;0.30;0.20;;;5.00;99.90;;;;;;5068292;28;20869;-81
2023/12/21 03:03:43;;;;;;;0.30;0.27;;;5.10;99.90;;;;;;5054235;28;20434;-81
2023/12/21 03:06:10;;;;;;;0.40;0.30;;;5.00;99.90;;;;;;5054787;28;20465;-82
2023/12/21 03:08:37;;;;;;;0.30;0.20;;;5.00;99.90;;;;;;5054072;28;21025;-81
2023/12/21 03:11:04;;;;;;;0.30;0.20;;;5.00;99.90;;;;;;5054825;28;20450;-82
2023/12/21 03:13:30;;;;;;;0.30;0.30;;;4.90;99.90;;;;;;5054812;28;20965;-81
2023/12/21 03:15:58;;;;;;;0.30;0.20;;;5.00;99.90;;;;;;5054867;28;20820;-83
2023/12/21 03:18:25;;;;;;;0.30;0.30;;;4.90;99.90;;;;;;5054861;28;20474;-82
2023/12/21 03:20:52;;;;;;;0.30;0.20;;;5.00;99.90;;;;;;5054637;28;20488;-82
2023/12/21 03:23:18;;;;;;;0.40;0.30;;;4.90;99.90;;;;;;5055320;28;20453;-82
2023/12/21 03:25:45;;;;;;;0.40;0.30;;;4.90;99.90;;;;;;5055200;28;20454;-83
2023/12/21 03:28:14;;;;;;;0.30;0.30;;;4.90;99.90;;;;;;5055207;28;20461;-83
2023/12/21 03:30:40;;;;;;;0.30;0.30;;;4.80;99.90;;;;;;5055010;28;20442;-82
2023/12/21 03:33:08;;;;;;;0.40;0.30;;;4.90;99.90;;;;;;5055462;28;20826;-81
2023/12/21 03:35:35;;;;;;;0.30;0.30;;;4.90;99.90;;;;;;5055188;28;20434;-83
2023/12/21 03:38:02;;;;;;;0.30;0.20;;;4.90;99.90;;;;;;5055334;28;20454;-81
2023/12/21 03:40:30;;;;;;;0.30;0.20;;;4.90;99.90;;;;;;5055092;28;20457;-82
2023/12/21 03:42:56;;;;;;;0.30;0.27;;;4.90;99.90;;;;;;5055803;28;20477;-83
2023/12/21 03:45:23;;;;;;;0.30;0.20;;;5.00;99.90;;;;;;5055453;28;20445;-83
2023/12/21 03:47:50;;;;;;;0.30;0.30;;;5.00;99.90;;;;;;5056199;28;20550;-81
2023/12/21 03:50:18;;;;;;;0.30;0.20;;;4.90;99.90;;;;;;5056065;28;20422;-81
2023/12/21 03:52:45;;;;;;;0.30;0.30;;;4.90;99.90;;;;;;5055618;28;20931;-81
2023/12/21 03:55:11;;;;;;;0.30;0.20;;;4.90;99.90;;;;;;5056215;28;20450;-82
2023/12/21 03:57:39;;;;;;;0.40;0.30;;;5.00;99.90;;;;;;5055810;28;20979;-83
2023/12/21 04:00:08;;;;;;;0.30;0.20;;;5.00;99.90;;;;;;5055799;28;20472;-81
2023/12/21 04:02:36;;;;;;;0.30;0.30;;;4.90;99.90;;;;;;5055945;28;20494;-82
2023/12/21 04:05:03;;;;;;;0.30;0.27;;;4.90;99.90;;;;;;5056332;28;20454;-82
2023/12/21 04:07:31;;;;;;;0.30;0.30;;;4.90;99.90;;;;;;5056062;28;20897;-81
2023/12/21 04:09:58;;;;;;;0.40;0.30;;;4.90;99.90;;;;;;5056248;28;20799;-82
2023/12/21 04:12:25;;;;;;;0.30;0.30;;;4.90;99.90;;;;;;5056459;28;20442;-82
2023/12/21 04:14:51;;;;;;;0.30;0.30;;;4.90;99.90;;;;;;5056196;28;20433;-83
2023/12/21 04:17:18;;;;;;;0.30;0.20;;;4.90;99.90;;;;;;5056065;28;20997;-82
2023/12/21 04:19:45;;;;;;;0.30;0.20;;;4.80;99.90;;;;;;5056185;28;20818;-81
2023/12/21 04:22:11;;;;;;;0.30;0.20;;;4.80;99.90;;;;;;5056764;28;20497;-82
2023/12/21 04:24:39;;;;;;;0.50;0.40;;;4.80;99.90;;;;;;5056574;28;20447;-82
2023/12/21 04:27:06;;;;;;;0.30;0.20;;;4.80;99.90;;;;;;5056885;28;20465;-82
2023/12/21 04:29:33;;;;;;;0.30;0.30;;;4.80;99.90;;;;;;5056542;28;20453;-81
2023/12/21 04:32:00;;;;;;;0.30;0.20;;;4.70;99.90;;;;;;5056950;28;20807;-83
2023/12/21 04:34:27;;;;;;;0.30;0.27;;;4.70;99.90;;;;;;5057092;28;20441;-81
2023/12/21 04:36:53;;;;;;;0.30;0.20;;;4.80;99.90;;;;;;5056194;28;20467;-83
2023/12/21 04:39:20;;;;;;;0.30;0.30;;;4.80;99.90;;;;;;5056927;28;20446;-82
2023/12/21 04:41:48;;;;;;;2.30;0.37;;;4.80;99.90;;;;;;5056516;28;20481;-82
2023/12/21 04:44:14;;;;;;;0.30;0.20;;;4.80;99.90;;;;;;5056843;28;20816;-82
2023/12/21 04:46:41;;;;;;;0.30;0.30;;;4.80;99.90;;;;;;5056392;28;20469;-81
2023/12/21 04:49:08;;;;;;;0.30;0.30;;;4.80;99.90;;;;;;5056428;28;20493;-82
2023/12/21 04:51:35;;;;;;;0.30;0.20;;;4.80;99.90;;;;;;5060006;28;20437;-82
2023/12/21 04:54:02;;;;;;;0.30;0.30;;;4.90;99.90;;;;;;5061289;28;20453;-82
2023/12/21 04:56:28;;;;;;;0.30;0.20;;;4.90;99.90;;;;;;5061648;28;20438;-82
2023/12/21 04:58:56;;;;;;;0.30;0.30;;;4.80;99.90;;;;;;5059586;28;20441;-83
2023/12/21 05:01:23;;;;;;;0.30;0.20;;;4.80;99.90;;;;;;5060017;28;20485;-82
2023/12/21 05:03:50;;;;;;;0.30;0.30;;;4.80;99.90;;;;;;5060646;28;20450;-81
2023/12/21 05:06:17;;;;;;;0.30;0.20;;;4.80;99.90;;;;;;5060092;28;20453;-81
2023/12/21 05:08:43;;;;;;;0.30;0.20;;;4.80;99.90;;;;;;5060271;28;20482;-82
2023/12/21 05:11:10;;;;;;;0.40;0.30;;;4.80;99.90;;;;;;5059950;28;20436;-82
2023/12/21 05:13:37;;;;;;;0.30;0.20;;;4.90;99.90;;;;;;5060586;28;20806;-81
2023/12/21 05:16:06;;;;;;;0.30;0.30;;;4.90;99.90;;;;;;5068414;28;20453;-80
2023/12/21 05:18:33;;;;;;;0.30;0.30;;;4.90;99.90;;;;;;5060054;28;20466;-81
2023/12/21 05:20:59;;;;;;;0.30;0.23;;;4.90;99.90;;;;;;5056700;28;20957;-81
2023/12/21 05:23:26;;;;;;;0.40;0.30;;;4.90;99.90;;;;;;5056633;28;20489;-82
2023/12/21 05:25:53;;;;;;;0.30;0.23;;;4.90;99.90;;;;;;5056922;28;20449;-82
2023/12/21 05:28:19;;;;;;;0.30;0.20;;;4.90;99.90;;;;;;5057109;28;20462;-82
2023/12/21 05:30:47;;;;;;;0.30;0.20;;;4.90;99.90;;;;;;5057349;28;20438;-82
2023/12/21 05:33:15;;;;;;;0.30;0.20;;;4.90;99.90;;;;;;5057758;28;20461;-82
2023/12/21 05:35:41;;;;;;;0.30;0.30;;;4.90;99.90;;;;;;5058590;28;20438;-82
2023/12/21 05:38:08;;;;;;;0.30;0.20;;;5.00;99.90;;;;;;5057926;28;21002;-83
2023/12/21 05:40:35;;;;;;;0.30;0.30;;;4.90;99.90;;;;;;5059040;28;20437;-83
2023/12/21 05:43:02;;;;;;;0.30;0.20;;;4.90;99.90;;;;;;5058362;28;20488;-82
2023/12/21 05:45:29;;;;;;;0.30;0.20;;;4.90;99.90;;;;;;5058169;28;20499;-82
2023/12/21 05:47:58;;;;;;;0.30;0.20;;;4.90;99.90;;;;;;5058591;28;20512;-83
2023/12/21 05:50:26;;;;;;;0.30;0.30;;;4.90;99.90;;;;;;5058344;28;20488;-83
2023/12/21 05:52:53;;;;;;;0.30;0.20;;;5.00;99.90;;;;;;5058702;28;20438;-82
2023/12/21 05:55:20;;;;;;;0.33;0.30;;;5.00;99.90;;;;;;5058274;28;20461;-82
2023/12/21 05:57:46;;;;;;;0.40;0.37;;;5.00;99.90;;;;;;5058372;28;20469;-82
2023/12/21 06:00:14;;;;;;;0.30;0.30;;;4.90;99.90;;;;;;5058685;28;20446;-82
2023/12/21 06:02:41;;;;;;;0.30;0.20;;;4.90;99.90;;;;;;5057883;28;20484;-81
2023/12/21 06:05:08;;;;;;;0.30;0.20;;;4.90;99.90;;;;;;5058747;28;20457;-83
2023/12/21 06:07:36;;;;;;;0.30;0.20;;;4.90;99.90;;;;;;5058213;28;20486;-82
2023/12/21 06:10:04;;;;;;;0.40;0.30;;;4.90;99.90;;;;;;5058781;28;20446;-82
2023/12/21 06:12:30;;;;;;;0.30;0.20;;;4.90;99.90;;;;;;5058118;28;20450;-82
2023/12/21 06:14:57;;;;;;;0.30;0.20;;;5.00;99.90;;;;;;5058706;28;20434;-82
2023/12/21 06:17:24;;;;;;;0.30;0.30;;;5.00;99.90;;;;;;5058949;28;20975;-82
2023/12/21 06:19:50;;;;;;;0.30;0.20;;;4.90;99.90;;;;;;5059065;28;20816;-82
2023/12/21 06:22:18;;;;;;;0.30;0.20;;;5.00;99.90;;;;;;5058950;28;20482;-82
2023/12/21 06:24:46;;;;;;;0.30;0.20;;;5.00;99.90;;;;;;5059887;28;20873;-82
2023/12/21 06:27:13;;;;;;;0.30;0.30;;;5.00;99.90;;;;;;5058694;28;20468;-84
2023/12/21 06:29:39;;;;;;;0.30;0.20;;;5.00;99.90;;;;;;5059136;28;20454;-81
2023/12/21 06:32:07;;;;;;;0.30;0.20;;;5.00;99.90;;;;;;5059409;28;20438;-81
2023/12/21 06:34:34;;;;;;;0.30;0.20;;;5.00;99.90;;;;;;5059567;28;20434;-82
2023/12/21 06:37:00;;;;;;;0.30;0.27;;;5.10;99.90;;;;;;5058945;28;20838;-82
2023/12/21 06:39:27;;;;;;;0.30;0.20;;;5.10;99.90;;;;;;5058615;28;20821;-81
2023/12/21 06:41:55;;;;;;;0.30;0.30;;;5.10;99.90;;;;;;5058111;28;20497;-82
2023/12/21 06:44:22;;;;;;;0.30;0.20;;;5.10;99.90;;;;;;5059304;28;20796;-82
2023/12/21 06:46:49;;;;;;;0.30;0.30;;;5.00;99.90;;;;;;5058018;28;20454;-82
2023/12/21 06:49:15;;;;;;;0.30;0.20;;;5.00;99.90;;;;;;5058295;28;20434;-82
2023/12/21 06:51:44;;;;;;;0.30;0.30;;;5.00;99.90;;;;;;5057781;28;20544;-82
2023/12/21 06:54:11;;;;;;;0.30;0.20;;;5.10;99.90;;;;;;5058126;28;21000;-83
2023/12/21 06:56:38;;;;;;;0.30;0.20;;;5.10;99.90;;;;;;5058509;28;20822;-81
2023/12/21 06:59:06;;;;;;;0.50;0.50;;;5.10;99.90;;;;;;5058278;28;20446;-82
2023/12/21 07:01:33;;;;;;;0.50;0.30;;;5.10;99.90;;;;;;5057979;28;20457;-82
2023/12/21 07:04:00;;;;;;;0.30;0.20;;;5.10;99.90;;;;;;5057384;28;20488;-81
2023/12/21 07:06:26;;;;;;;0.30;0.30;;;5.10;99.90;;;;;;5058398;28;20445;-82
2023/12/21 07:08:53;;;;;;;0.30;0.30;;;5.20;99.90;;;;;;5057520;28;20935;-81
2023/12/21 07:11:20;;;;;;;0.30;0.20;;;5.30;99.90;;;;;;5057663;28;20934;-82
2023/12/21 07:13:47;;;;;;;0.30;0.20;;;5.30;99.90;;;;;;5057657;28;20434;-83
2023/12/21 07:16:15;;;;;;;0.30;0.30;;;5.30;99.90;;;;;;5057936;28;20430;-83
2023/12/21 07:18:41;;;;;;;0.30;0.20;;;5.40;99.90;;;;;;5058442;28;20532;-82
2023/12/21 07:21:08;;;;;;;0.30;0.20;;;5.40;99.90;;;;;;5058168;28;20431;-83
2023/12/21 07:23:35;;;;;;;0.30;0.30;;;5.40;99.90;;;;;;5058982;28;20485;-82
2023/12/21 07:26:02;;;;;;;0.30;0.20;;;5.40;99.90;;;;;;5059232;28;20446;-81
2023/12/21 07:28:30;;;;;;;0.30;0.30;;;5.40;99.90;;;;;;5066877;28;20508;-79
2023/12/21 07:30:59;;;;;;;0.30;0.30;;;5.40;99.90;;;;;;5057327;28;20457;-81
2023/12/21 07:33:27;;;;;;;0.30;0.20;;;5.50;99.90;;;;;;5054107;28;20440;-82
2023/12/21 07:35:54;;;;;;;0.30;0.20;;;5.40;99.90;;;;;;5054701;28;20446;-82
2023/12/21 07:38:20;;;;;;;0.30;0.30;;;5.40;99.90;;;;;;5054434;28;20453;-83
2023/12/21 07:40:47;;;;;;;0.33;0.27;;;5.50;99.90;;;;;;5054444;28;20430;-83
2023/12/21 07:43:14;;;;;;;0.30;0.20;;;5.50;99.90;;;;;;5054104;28;20500;-83
2023/12/21 07:45:40;;;;;;;0.30;0.20;;;5.40;99.90;;;;;;5055031;28;20462;-83
2023/12/21 07:48:07;;;;;;;0.30;0.20;;;5.40;99.90;;;;;;5054886;28;20472;-83
2023/12/21 07:50:35;;;;;;;0.30;0.20;;;5.40;99.90;;;;;;5054895;28;20445;-83
2023/12/21 07:53:02;;;;;;;0.30;0.27;;;5.40;99.90;;;;;;5055663;28;20792;-82
2023/12/21 07:55:29;;;;;;;0.30;0.23;;;5.50;99.90;;;;;;5055959;28;20457;-82
2023/12/21 07:57:55;;;;;;;0.30;0.30;;;5.50;99.90;;;;;;5055890;28;20477;-83
2023/12/21 08:00:22;;;;;;;2.00;0.40;;;5.50;99.90;;;;;;5055993;28;20445;-84
2023/12/21 08:02:49;;;;;;;0.30;0.30;;;5.50;99.90;;;;;;5056108;28;20481;-84
2023/12/21 08:05:16;;;;;;;0.40;0.30;;;5.50;99.90;;;;;;5056126;28;20484;-84
2023/12/21 08:07:44;;;;;;;0.30;0.30;;;5.50;99.90;;;;;;5055224;28;20477;-84
2023/12/21 08:10:10;;;;;;;0.30;0.20;;;5.50;99.90;;;;;;5054655;28;20421;-83
2023/12/21 08:12:37;;;;;;;0.30;0.23;;;5.60;99.90;;;;;;5054325;28;20859;-82
2023/12/21 08:15:05;;;;;;;0.30;0.30;;;5.60;99.90;;;;;;5053360;28;21002;-83
2023/12/21 08:17:32;;;;;;;0.30;0.30;;;5.60;99.90;;;;;;5057373;28;20461;-84
2023/12/21 08:19:59;;;;;;;0.30;0.30;;;5.60;99.90;;;;;;5059200;28;20464;-83
2023/12/21 08:22:25;;;;;;;0.30;0.20;;;5.70;99.90;;;;;;5060732;28;20932;-83
2023/12/21 08:24:56;;;;;;;0.30;0.30;;;5.70;99.90;;;;;;5059676;28;20454;-83
2023/12/21 08:27:23;;;;;;;0.30;0.20;;;5.60;99.90;;;;;;5062879;28;20458;-83
2023/12/21 08:29:50;;;;;;;0.33;0.20;;;5.70;99.90;;;;;;5064277;28;20477;-83
2023/12/21 08:32:18;;;;;;;0.30;0.30;;;5.70;99.90;;;;;;5059999;28;20458;-84
2023/12/21 08:34:45;;;;;;;0.40;0.30;;;5.60;99.90;;;;;;5063662;28;20449;-82
2023/12/21 08:37:12;;;;;;;0.30;0.20;;;5.60;99.90;;;;;;5064159;28;20483;-82
2023/12/21 08:39:39;;;;;;;0.30;0.30;;;5.70;99.90;;;;;;5063672;28;20946;-82
2023/12/21 08:42:08;;;;;;;0.30;0.30;;;5.70;99.90;;;;;;5064378;28;20493;-83
2023/12/21 08:44:35;;;;;;;0.40;0.33;;;5.70;99.90;;;;;;5063459;28;20466;-81
2023/12/21 08:47:02;;;;;;;1.30;0.30;;;5.70;99.90;;;;;;5062963;28;20453;-81
2023/12/21 08:49:28;;;;;;;0.30;0.20;;;5.70;99.90;;;;;;5063108;28;20804;-83
2023/12/21 08:51:55;;;;;;;0.30;0.30;;;5.70;99.90;;;;;;5063508;28;20449;-81
2023/12/21 08:54:22;;;;;;;0.30;0.30;;;5.70;99.90;;;;;;5065249;28;20441;-82
2023/12/21 08:56:50;;;;;;;0.30;0.20;;;5.70;99.90;;;;;;5066157;28;20493;-83
2023/12/21 08:59:19;;;;;;;0.30;0.27;;;5.70;99.90;;;;;;5065210;28;20472;-83
2023/12/21 09:01:45;;;;;;;0.30;0.30;;;5.80;99.90;;;;;;5063193;28;20453;-83
2023/12/21 09:04:12;;;;;;;0.30;0.20;;;5.80;99.90;;;;;;5065741;28;20877;-83
2023/12/21 09:06:39;;;;;;;0.30;0.20;;;5.80;99.90;;;;;;5065504;28;20997;-83
2023/12/21 09:09:05;;;;;;;0.30;0.20;;;5.80;99.90;;;;;;5065478;28;20418;-81
2023/12/21 09:11:32;;;;;;;0.30;0.30;;;5.80;99.90;;;;;;5062819;28;20464;-83
2023/12/21 09:13:59;;;;;;;0.30;0.30;;;5.80;99.90;;;;;;5063427;28;20981;-82
2023/12/21 09:16:27;;;;;;;0.30;0.20;;;5.80;99.90;;;;;;5063323;28;20441;-84
2023/12/21 09:18:54;;;;;;;0.40;0.40;;;5.90;99.90;;;;;;5063029;28;20452;-82
2023/12/21 09:21:21;;;;;;;0.30;0.20;;;5.90;99.90;;;;;;5061818;28;20438;-81
2023/12/21 09:23:48;;;;;;;0.30;0.30;;;5.80;99.90;;;;;;5063539;28;20481;-82
2023/12/21 09:26:14;;;;;;;0.30;0.20;;;5.90;99.90;;;;;;5061638;28;20441;-82
2023/12/21 09:28:41;;;;;;;0.87;0.30;;;5.90;99.90;;;;;;5061824;28;20469;-82
2023/12/21 09:31:08;;;;;;;0.30;0.30;;;5.90;99.90;;;;;;5058833;28;20450;-82
2023/12/21 09:33:36;;;;;;;0.30;0.30;;;6.00;99.90;;;;;;5061123;28;20438;-81
2023/12/21 09:36:04;;;;;;;0.50;0.30;;;6.00;99.90;;;;;;5060557;28;20480;-81
2023/12/21 09:38:31;;;;;;;0.30;0.20;;;6.00;99.90;;;;;;5056896;28;20469;-82
2023/12/21 09:40:58;;;;;;;0.30;0.20;;;6.00;99.90;;;;;;5058704;28;20456;-82
2023/12/21 09:43:27;;;;;;;0.30;0.30;;;6.00;99.90;;;;;;5065116;28;20473;-81
2023/12/21 09:45:56;;;;;;;0.30;0.20;;;6.10;99.90;;;;;;5056544;28;20456;-81
2023/12/21 09:48:25;;;;;;;0.30;0.30;;;6.10;99.90;;;;;;5056309;28;20978;-82
2023/12/21 09:50:53;;;;;;;0.30;0.30;;;6.10;99.90;;;;;;5055804;28;20441;-82
2023/12/21 09:53:22;;;;;;;0.30;0.30;;;6.20;99.90;;;;;;5055834;28;20456;-83
2023/12/21 09:55:50;;;;;;;0.50;0.30;;;6.20;99.90;;;;;;5058011;28;20785;-83
2023/12/21 09:58:17;;;;;;;0.30;0.20;;;6.20;99.90;;;;;;5056463;28;20911;-83
2023/12/21 10:00:43;;;;;;;0.30;0.30;;;6.20;99.90;;;;;;5056343;28;20477;-83
2023/12/21 10:03:10;;;;;;;0.30;0.20;;;6.30;99.90;;;;;;5058570;28;20833;-82
2023/12/21 10:05:39;;;;;;;0.30;0.20;;;6.30;99.90;;;;;;5058988;28;20456;-83
2023/12/21 10:08:08;;;;;;;0.30;0.20;;;6.30;99.90;;;;;;5057699;28;20481;-82
2023/12/21 10:10:37;;;;;;;0.40;0.30;;;6.40;99.90;;;;;;5058413;28;20438;-82
2023/12/21 10:13:04;;;;;;;0.30;0.20;;;6.40;99.90;;;;;;5058052;28;20449;-82
2023/12/21 10:15:32;;;;;;;0.40;0.30;;;6.40;99.90;;;;;;5058152;28;20442;-82
2023/12/21 10:17:59;;;;;;;0.30;0.27;;;6.50;99.90;;;;;;5058866;28;20450;-82
2023/12/21 10:20:27;;;;;;;0.30;0.20;;;6.50;99.90;;;;;;5060720;28;20453;-81
2023/12/21 10:22:56;;;;;;;0.30;0.20;;;6.50;99.90;;;;;;5060244;28;20453;-81
2023/12/21 10:25:25;;;;;;;0.30;0.20;;;6.40;99.90;;;;;;5060244;28;20496;-82
2023/12/21 10:27:53;;;;;;;0.30;0.30;;;6.50;99.90;;;;;;5058368;28;20461;-81
2023/12/21 10:30:22;;;;;;;0.30;0.20;;;6.50;99.90;;;;;;5059408;28;20457;-78
2023/12/21 10:32:52;;;;;;;0.30;0.30;;;6.50;99.90;;;;;;5058875;28;20461;-85
2023/12/21 10:35:19;;;;;;;0.30;0.20;;;6.60;99.90;;;;;;5057587;28;20442;-81
2023/12/21 10:37:46;;;;;;;0.30;0.20;;;6.60;99.90;;;;;;5058039;28;20853;-81
2023/12/21 10:40:14;;;;;;;0.40;0.40;;;6.60;99.90;;;;;;5057824;28;20504;-82
2023/12/21 10:42:46;;;;;;;0.33;0.27;;;6.60;99.90;;;;;;5058374;28;20458;-83
2023/12/21 10:45:15;;;;;;;0.70;0.37;;;6.60;99.90;;;;;;5058306;28;20470;-83
2023/12/21 10:47:47;;;;;;;0.30;0.20;;;6.60;99.90;;;;;;5060143;28;20468;-83
2023/12/21 10:50:16;;;;;;;0.30;0.23;;;6.60;99.90;;;;;;5057609;28;20442;-83
2023/12/21 10:52:44;;;;;;;0.30;0.20;;;6.70;99.90;;;;;;5057780;28;20548;-83
2023/12/21 10:55:12;;;;;;;0.30;0.20;;;6.70;99.90;;;;;;5060631;28;20446;-82
2023/12/21 10:57:41;;;;;;;0.40;0.30;;;6.70;99.90;;;;;;5060970;28;20906;-83
2023/12/21 11:00:12;;;;;;;0.30;0.20;;;6.60;99.90;;;;;;5060568;28;20453;-82
2023/12/21 11:02:40;;;;;;;0.30;0.20;;;6.70;99.90;;;;;;5059999;28;20430;-83
2023/12/21 11:05:10;;;;;;;0.30;0.20;;;6.60;99.90;;;;;;5057949;28;20481;-83
2023/12/21 11:07:37;;;;;;;0.40;0.30;;;6.70;99.90;;;;;;5055687;28;20986;-83
2023/12/21 11:10:06;;;;;;;0.67;0.37;;;6.80;99.90;;;;;;5055638;28;20431;-83
2023/12/21 11:12:32;;;;;;;0.30;0.30;;;6.80;99.90;;;;;;5055772;28;20446;-83
2023/12/21 11:14:59;;;;;;;0.30;0.20;;;6.70;99.90;;;;;;5056671;28;20446;-83
2023/12/21 11:17:28;;;;;;;0.30;0.30;;;6.80;99.90;;;;;;5056467;28;20466;-83
2023/12/21 11:19:58;;;;;;;0.30;0.30;;;6.90;99.90;;;;;;5056716;28;20450;-83
2023/12/21 11:22:24;;;;;;;0.40;0.40;;;6.90;99.90;;;;;;5056110;28;20437;-80
2023/12/21 11:25:01;;;;;;;0.30;0.20;;;6.80;99.90;;;;;;5054925;28;20489;-83
2023/12/21 11:27:27;;;;;;;4.10;0.30;;;6.80;99.90;;;;;;5054655;28;20480;-84
2023/12/21 11:29:55;;;;;;;0.30;0.30;;;6.80;99.90;;;;;;5054451;28;20444;-81
2023/12/21 11:32:26;;;;;;;0.60;0.33;;;6.80;99.90;;;;;;5054434;28;20430;-80
2023/12/21 11:34:53;;;;;;;0.30;0.20;;;6.80;99.90;;;;;;5054170;28;20449;-80
2023/12/21 11:37:24;;;;;;;0.40;0.30;;;6.80;99.90;;;;;;5053859;28;20469;-81
2023/12/21 11:39:53;;;;;;;0.30;0.20;;;6.90;99.90;;;;;;5054850;28;20839;-83
2023/12/21 11:42:21;;;;;;;0.30;0.20;;;6.90;99.90;;;;;;5054144;28;20450;-83
2023/12/21 11:44:52;;;;;;;0.50;0.33;;;6.90;99.90;;;;;;5054281;28;20541;-83
2023/12/21 11:47:18;;;;;;;0.30;0.30;;;6.90;99.90;;;;;;5054262;28;20539;-84
2023/12/21 11:49:47;;;;;;;0.30;0.30;;;6.90;99.90;;;;;;5054899;28;20440;-83
2023/12/21 11:52:23;;;;;;;0.30;0.30;;;7.00;99.90;;;;;;5059840;28;20942;-83
2023/12/21 11:54:51;;;;;;;0.30;0.30;;;7.00;99.90;;;;;;5053811;28;20433;-83
2023/12/21 11:57:18;;;;;;;0.30;0.20;;;6.90;99.90;;;;;;5053661;28;20469;-83
2023/12/21 11:59:45;;;;;;;0.90;0.50;;;7.00;99.90;;;;;;5053275;28;20450;-84
2023/12/21 12:02:13;;;;;;;0.30;0.30;;;7.00;99.90;;;;;;5053757;28;20453;-83
2023/12/21 12:04:40;;;;;;;0.30;0.20;;;7.10;99.90;;;;;;5053288;28;20496;-83
2023/12/21 12:07:08;;;;;;;0.73;0.33;;;7.10;99.90;;;;;;5052983;28;20484;-83
2023/12/21 12:09:35;;;;;;;0.30;0.30;;;7.20;99.90;;;;;;5053969;28;20457;-83
2023/12/21 12:12:02;;;;;;;0.30;0.20;;;7.20;99.90;;;;;;5053448;28;20877;-84
2023/12/21 12:14:29;;;;;;;0.30;0.30;;;7.20;99.90;;;;;;5053892;28;20801;-83
2023/12/21 12:16:59;;;;;;;0.30;0.30;;;7.20;99.90;;;;;;5054877;28;20558;-82
2023/12/21 12:19:26;;;;;;;0.30;0.20;;;7.20;99.90;;;;;;5053854;28;20966;-83
2023/12/21 12:21:54;;;;;;;0.30;0.20;;;7.20;99.90;;;;;;5053689;28;20458;-85
2023/12/21 12:24:22;;;;;;;0.30;0.20;;;7.40;99.90;;;;;;5053247;28;20474;-86
2023/12/21 12:26:49;;;;;;;0.30;0.30;;;7.40;99.90;;;;;;5053539;28;20501;-83
2023/12/21 12:29:17;;;;;;;0.30;0.20;;;7.50;99.90;;;;;;5053349;28;20441;-82
2023/12/21 12:31:44;;;;;;;0.30;0.20;;;7.50;99.90;;;;;;5054558;28;20449;-82
2023/12/21 12:34:11;;;;;;;0.30;0.30;;;7.60;99.90;;;;;;5055134;28;20423;-81
2023/12/21 12:36:38;;;;;;;0.30;0.30;;;7.60;99.90;;;;;;5054205;28;20492;-82
2023/12/21 12:39:05;;;;;;;0.30;0.20;;;7.70;99.90;;;;;;5053583;28;20970;-82
2023/12/21 12:41:33;;;;;;;0.30;0.30;;;7.60;99.90;;;;;;5053929;28;20454;-82
2023/12/21 12:44:00;;;;;;;0.30;0.30;;;7.60;99.90;;;;;;5053980;28;20496;-82
2023/12/21 12:46:28;;;;;;;0.30;0.20;;;7.60;99.90;;;;;;5054037;28;20457;-82
2023/12/21 12:48:55;;;;;;;0.30;0.20;;;7.60;99.90;;;;;;5054971;28;20474;-82
2023/12/21 12:51:22;;;;;;;0.30;0.30;;;7.50;99.90;;;;;;5054544;28;20440;-82
2023/12/21 12:53:51;;;;;;;0.40;0.30;;;7.50;99.90;;;;;;5055435;28;20442;-82
2023/12/21 12:56:18;;;;;;;0.30;0.30;;;7.50;99.90;;;;;;5054910;28;20504;-82
2023/12/21 12:58:46;;;;;;;0.30;0.30;;;7.50;99.90;;;;;;5055402;28;20423;-82